首页
METAR-TAF:

METAR-TAF

机场 :

米蘭-利納特機場

米蘭, 意大利

纬度: 45-26N, 经度: 009-17E, 海拔: 107米

当前天气观测

该预报发布于32分钟前的21:20 UTC
风速2节,风向多变
温度 26°C
湿度 58%
气压 1020 hPa
能见度10公里或以上
1500米以下无云,无积雨云

METAR: LIML 212120Z VRB02KT CAVOK 26/17 Q1020 NOSIG

时间: 23:52 (21:52 UTC)

预报

该预报发布于4小时和52分钟前的17:00 UTC
预报有效从21日的 18点(UTC)到 22日的 18点(UTC)
风速8节,风向西转西南
能见度10公里或以上
1500米以下无云,无积雨云

TAF: LIML 211700Z 2118/2218 24008KT CAVOK

超过4000个机场的气象观测和天气预报(METAR&TAF报告)。

可查询的气象台以黄色和红色小点在地图上表示。

将鼠标移到小点上方,可查看气象台名称。

然后点击查看天气观测和预报。

如需切换地图:点击带黑十字的绿色按钮放大地图;点击带横线的绿色按钮缩小地图;或者点击绿色箭头查看邻近地区的地图。


METAR-TAF: